Time;durP1;ratioP1;P1;durP2;ratioP2;P2;SDS_P1;SDS_P2;PMS_P1;PMS_P2;Temp;Humidity;BMP_temperature;BMP_pressure;BME280_temperature;BME280_humidity;BME280_pressure;Samples;Min_cycle;Max_cycle;Signal;HPM_P1;HPM_P2
2021/09/27 00:00:43;;;;;;;;;;;;;;;;;;2114670;28;19928;-57
2021/09/27 00:01:44;;;;;;;;;;;;;;;;;;2121551;27;19930;-57
2021/09/27 00:02:45;;;;;;;;;;;;;;;;;;2123331;27;19930;-57
2021/09/27 00:03:46;;;;;;;;;;;;;;;;;;2122960;27;19931;-57
2021/09/27 00:04:46;;;;;;;;;;;;;;;;;;2122377;27;20387;-56
2021/09/27 00:05:47;;;;;;;;;;;;;;;;;;2123181;27;19977;-57
2021/09/27 00:06:48;;;;;;;;;;;;;;;;;;2122429;27;19931;-57
2021/09/27 00:07:49;;;;;;;;;;;;;;;;;;2121682;27;19977;-57
2021/09/27 00:08:50;;;;;;;;;;;;;;;;;;2123243;27;19923;-57
2021/09/27 00:09:51;;;;;;;;;;;;;;;;;;2121692;27;20407;-57
2021/09/27 00:10:51;;;;;;;;;;;;;;;;;;2123542;27;20388;-57
2021/09/27 00:11:52;;;;;;;;;;;;;;;;;;2123107;27;19934;-57
2021/09/27 00:12:53;;;;;;;;;;;;;;;;;;2121822;27;19930;-57
2021/09/27 00:13:54;;;;;;;;;;;;;;;;;;2122310;27;19976;-57
2021/09/27 00:14:55;;;;;;;;;;;;;;;;;;2123462;27;19931;-57
2021/09/27 00:15:56;;;;;;;;;;;;;;;;;;2122219;27;19927;-55
2021/09/27 00:16:58;;;;;;;;;;;;;;;;;;2117584;27;19924;-57
2021/09/27 00:17:58;;;;;;;;;;;;;;;;;;2114831;28;20379;-57
2021/09/27 00:18:59;;;;;;;;;;;;;;;;;;2118937;27;19924;-56
2021/09/27 00:20:00;;;;;;;;;;;;;;;;;;2121645;28;19937;-57
2021/09/27 00:21:01;;;;;;;;;;;;;;;;;;2123182;27;19931;-57
2021/09/27 00:22:02;;;;;;;;;;;;;;;;;;2123480;27;19940;-57
2021/09/27 00:23:02;;;;;;;;;;;;;;;;;;2117383;27;19931;-57
2021/09/27 00:24:03;;;;;;;;;;;;;;;;;;2114879;28;20326;-56
2021/09/27 00:25:04;;;;;;;;;;;;;;;;;;2118081;28;19947;-57
2021/09/27 00:26:05;;;;;;;;;;;;;;;;;;2131094;27;19927;-56
2021/09/27 00:27:06;;;;;;;;;;;;;;;;;;2131867;27;19930;-57
2021/09/27 00:28:06;;;;;;;;;;;;;;;;;;2121888;27;19924;-56
2021/09/27 00:29:07;;;;;;;;;;;;;;;;;;2123163;27;19953;-56
2021/09/27 00:30:08;;;;;;;;;;;;;;;;;;2123200;27;20295;-57
2021/09/27 00:31:09;;;;;;;;;;;;;;;;;;2120917;27;19924;-56
2021/09/27 00:32:10;;;;;;;;;;;;;;;;;;2123259;27;19924;-57
2021/09/27 00:33:11;;;;;;;;;;;;;;;;;;2123221;27;20284;-57
2021/09/27 00:34:11;;;;;;;;;;;;;;;;;;2122858;27;19929;-57
2021/09/27 00:35:12;;;;;;;;;;;;;;;;;;2123171;28;19923;-57
2021/09/27 00:36:13;;;;;;;;;;;;;;;;;;2123039;28;19923;-57
2021/09/27 00:37:14;;;;;;;;;;;;;;;;;;2120737;27;19927;-57
2021/09/27 00:38:14;;;;;;;;;;;;;;;;;;2123239;27;19924;-57
2021/09/27 00:39:15;;;;;;;;;;;;;;;;;;2122587;27;19923;-58
2021/09/27 00:40:18;;;;;;;;;;;;;;;;;;2119413;28;19931;-57
2021/09/27 00:41:19;;;;;;;;;;;;;;;;;;2114624;28;20002;-57
2021/09/27 00:42:19;;;;;;;;;;;;;;;;;;2115398;28;19952;-57
2021/09/27 00:43:20;;;;;;;;;;;;;;;;;;2119959;27;19924;-57
2021/09/27 00:44:21;;;;;;;;;;;;;;;;;;2124658;27;19923;-57
2021/09/27 00:45:22;;;;;;;;;;;;;;;;;;2123593;27;19949;-57
2021/09/27 00:46:23;;;;;;;;;;;;;;;;;;2123079;27;19923;-56
2021/09/27 00:47:24;;;;;;;;;;;;;;;;;;2124605;27;19989;-57
2021/09/27 00:48:25;;;;;;;;;;;;;;;;;;2123086;27;19923;-57
2021/09/27 00:49:25;;;;;;;;;;;;;;;;;;2127712;27;19976;-56
2021/09/27 00:50:26;;;;;;;;;;;;;;;;;;2131039;27;19923;-57
2021/09/27 00:51:27;;;;;;;;;;;;;;;;;;2122943;28;20330;-57
2021/09/27 00:52:28;;;;;;;;;;;;;;;;;;2125136;27;19928;-57
2021/09/27 00:53:29;;;;;;;;;;;;;;;;;;2124745;27;19950;-57
2021/09/27 00:54:30;;;;;;;;;;;;;;;;;;2123673;27;19930;-57
2021/09/27 00:55:30;;;;;;;;;;;;;;;;;;2130494;27;19924;-57
2021/09/27 00:56:31;;;;;;;;;;;;;;;;;;2133225;27;20056;-57
2021/09/27 00:57:32;;;;;;;;;;;;;;;;;;2128421;27;21262;-57
2021/09/27 00:58:33;;;;;;;;;;;;;;;;;;2119996;27;19924;-57
2021/09/27 00:59:34;;;;;;;;;;;;;;;;;;2115885;28;19954;-57
2021/09/27 01:00:34;;;;;;;;;;;;;;;;;;2119900;27;19931;-57
2021/09/27 01:01:35;;;;;;;;;;;;;;;;;;2124177;27;20273;-57
2021/09/27 01:02:36;;;;;;;;;;;;;;;;;;2124628;27;19945;-57
2021/09/27 01:03:37;;;;;;;;;;;;;;;;;;2123397;27;19931;-57
2021/09/27 01:04:38;;;;;;;;;;;;;;;;;;2124342;28;19924;-57
2021/09/27 01:05:39;;;;;;;;;;;;;;;;;;2124426;27;20020;-56
2021/09/27 01:06:40;;;;;;;;;;;;;;;;;;2125514;27;19923;-57
2021/09/27 01:07:40;;;;;;;;;;;;;;;;;;2116837;27;19950;-57
2021/09/27 01:08:41;;;;;;;;;;;;;;;;;;2116008;28;19947;-57
2021/09/27 01:09:42;;;;;;;;;;;;;;;;;;2123796;27;19987;-57
2021/09/27 01:10:43;;;;;;;;;;;;;;;;;;2116012;28;19931;-57
2021/09/27 01:11:43;;;;;;;;;;;;;;;;;;2115926;28;20390;-57
2021/09/27 01:12:46;;;;;;;;;;;;;;;;;;2121286;27;20443;-57
2021/09/27 01:13:46;;;;;;;;;;;;;;;;;;2133079;27;19962;-56
2021/09/27 01:14:47;;;;;;;;;;;;;;;;;;2130142;27;19946;-57
2021/09/27 01:15:48;;;;;;;;;;;;;;;;;;2124007;27;20303;-57
2021/09/27 01:16:49;;;;;;;;;;;;;;;;;;2116016;28;19931;-57
2021/09/27 01:17:50;;;;;;;;;;;;;;;;;;2115597;28;20022;-57
2021/09/27 01:18:51;;;;;;;;;;;;;;;;;;2123583;27;19932;-57
2021/09/27 01:19:52;;;;;;;;;;;;;;;;;;2124447;27;20295;-56
2021/09/27 01:20:53;;;;;;;;;;;;;;;;;;2123998;27;19932;-57
2021/09/27 01:21:53;;;;;;;;;;;;;;;;;;2122386;27;20337;-57
2021/09/27 01:22:54;;;;;;;;;;;;;;;;;;2124366;27;19934;-56
2021/09/27 01:23:55;;;;;;;;;;;;;;;;;;2123773;27;19923;-56
2021/09/27 01:24:56;;;;;;;;;;;;;;;;;;2126086;27;19927;-57
2021/09/27 01:25:57;;;;;;;;;;;;;;;;;;2124249;28;19931;-55
2021/09/27 01:26:58;;;;;;;;;;;;;;;;;;2122947;28;19977;-57
2021/09/27 01:27:58;;;;;;;;;;;;;;;;;;2126609;27;20287;-57
2021/09/27 01:28:59;;;;;;;;;;;;;;;;;;2124270;28;19970;-56
2021/09/27 01:30:00;;;;;;;;;;;;;;;;;;2122659;27;19923;-57
2021/09/27 01:31:01;;;;;;;;;;;;;;;;;;2123399;27;19931;-56
2021/09/27 01:32:01;;;;;;;;;;;;;;;;;;2124293;27;19923;-57
2021/09/27 01:33:02;;;;;;;;;;;;;;;;;;2123153;27;19923;-57
2021/09/27 01:34:03;;;;;;;;;;;;;;;;;;2122914;27;19923;-56
2021/09/27 01:35:04;;;;;;;;;;;;;;;;;;2124367;27;20379;-57
2021/09/27 01:36:05;;;;;;;;;;;;;;;;;;2122338;27;20138;-57
2021/09/27 01:37:06;;;;;;;;;;;;;;;;;;2130769;27;19923;-57
2021/09/27 01:38:06;;;;;;;;;;;;;;;;;;2132926;27;19923;-57
2021/09/27 01:39:08;;;;;;;;;;;;;;;;;;2127218;27;20373;-57
2021/09/27 01:40:08;;;;;;;;;;;;;;;;;;2123884;28;19928;-57
2021/09/27 01:41:09;;;;;;;;;;;;;;;;;;2124314;27;19923;-57
2021/09/27 01:42:10;;;;;;;;;;;;;;;;;;2124759;27;19932;-57
2021/09/27 01:43:11;;;;;;;;;;;;;;;;;;2117651;27;19923;-57
2021/09/27 01:44:12;;;;;;;;;;;;;;;;;;2115657;28;19924;-57
2021/09/27 01:45:13;;;;;;;;;;;;;;;;;;2120580;27;19931;-57
2021/09/27 01:46:13;;;;;;;;;;;;;;;;;;2123169;28;19964;-57
2021/09/27 01:47:14;;;;;;;;;;;;;;;;;;2124184;27;19923;-57
2021/09/27 01:48:15;;;;;;;;;;;;;;;;;;2125311;27;19935;-57
2021/09/27 01:49:16;;;;;;;;;;;;;;;;;;2124060;28;19923;-57
2021/09/27 01:50:17;;;;;;;;;;;;;;;;;;2124009;28;19923;-57
2021/09/27 01:51:17;;;;;;;;;;;;;;;;;;2120199;27;19924;-57
2021/09/27 01:52:18;;;;;;;;;;;;;;;;;;2124329;27;19988;-57
2021/09/27 01:53:19;;;;;;;;;;;;;;;;;;2124276;27;19923;-57
2021/09/27 01:54:20;;;;;;;;;;;;;;;;;;2122818;27;19924;-57
2021/09/27 01:55:21;;;;;;;;;;;;;;;;;;2123075;27;19923;-57
2021/09/27 01:56:22;;;;;;;;;;;;;;;;;;2124182;27;20380;-57
2021/09/27 01:57:23;;;;;;;;;;;;;;;;;;2120872;27;19931;-57
2021/09/27 01:58:23;;;;;;;;;;;;;;;;;;2124031;27;20284;-58
2021/09/27 01:59:24;;;;;;;;;;;;;;;;;;2123661;27;19930;-58
2021/09/27 02:00:25;;;;;;;;;;;;;;;;;;2124404;27;19937;-59
2021/09/27 02:01:26;;;;;;;;;;;;;;;;;;2115637;28;19928;-58
2021/09/27 02:02:27;;;;;;;;;;;;;;;;;;2116325;28;20068;-58
2021/09/27 02:03:27;;;;;;;;;;;;;;;;;;2121612;27;19927;-58
2021/09/27 02:04:28;;;;;;;;;;;;;;;;;;2124102;27;19927;-58
2021/09/27 02:05:29;;;;;;;;;;;;;;;;;;2123112;27;19924;-58
2021/09/27 02:06:30;;;;;;;;;;;;;;;;;;2122757;27;20388;-59
2021/09/27 02:07:31;;;;;;;;;;;;;;;;;;2124265;27;19945;-58
2021/09/27 02:08:32;;;;;;;;;;;;;;;;;;2122603;27;19930;-59
2021/09/27 02:09:32;;;;;;;;;;;;;;;;;;2121934;27;20261;-59
2021/09/27 02:10:33;;;;;;;;;;;;;;;;;;2115675;28;20372;-59
2021/09/27 02:11:34;;;;;;;;;;;;;;;;;;2120942;27;19923;-59
2021/09/27 02:12:35;;;;;;;;;;;;;;;;;;2123124;27;19923;-59
2021/09/27 02:13:35;;;;;;;;;;;;;;;;;;2124022;27;20332;-59
2021/09/27 02:14:36;;;;;;;;;;;;;;;;;;2123307;27;19976;-59
2021/09/27 02:15:37;;;;;;;;;;;;;;;;;;2117415;28;19925;-59
2021/09/27 02:16:38;;;;;;;;;;;;;;;;;;2115544;28;19924;-59
2021/09/27 02:17:39;;;;;;;;;;;;;;;;;;2119746;27;19939;-59
2021/09/27 02:18:40;;;;;;;;;;;;;;;;;;2119271;27;20304;-59
2021/09/27 02:19:41;;;;;;;;;;;;;;;;;;2115504;28;19936;-59
2021/09/27 02:20:42;;;;;;;;;;;;;;;;;;2119139;27;19924;-59
2021/09/27 02:21:42;;;;;;;;;;;;;;;;;;2122821;28;20432;-59
2021/09/27 02:22:43;;;;;;;;;;;;;;;;;;2123909;27;20067;-59
2021/09/27 02:23:45;;;;;;;;;;;;;;;;;;2122177;27;19975;-59
2021/09/27 02:24:46;;;;;;;;;;;;;;;;;;2123494;28;19923;-59
2021/09/27 02:25:46;;;;;;;;;;;;;;;;;;2124017;27;19923;-59
2021/09/27 02:26:47;;;;;;;;;;;;;;;;;;2122106;27;20368;-59
2021/09/27 02:27:48;;;;;;;;;;;;;;;;;;2132321;27;19923;-59
2021/09/27 02:28:49;;;;;;;;;;;;;;;;;;2132548;27;19926;-59
2021/09/27 02:29:50;;;;;;;;;;;;;;;;;;2123182;27;20068;-59
2021/09/27 02:30:51;;;;;;;;;;;;;;;;;;2123937;27;19934;-60
2021/09/27 02:31:51;;;;;;;;;;;;;;;;;;2123974;27;19930;-59
2021/09/27 02:32:52;;;;;;;;;;;;;;;;;;2124404;27;19922;-59
2021/09/27 02:33:53;;;;;;;;;;;;;;;;;;2115537;28;20273;-60
2021/09/27 02:34:54;;;;;;;;;;;;;;;;;;2115556;28;20392;-60
2021/09/27 02:35:54;;;;;;;;;;;;;;;;;;2123414;27;19927;-60
2021/09/27 02:36:55;;;;;;;;;;;;;;;;;;2132390;27;19923;-60
2021/09/27 02:37:56;;;;;;;;;;;;;;;;;;2131855;27;19927;-60
2021/09/27 02:38:57;;;;;;;;;;;;;;;;;;2122943;27;20348;-60
2021/09/27 02:39:58;;;;;;;;;;;;;;;;;;2123904;27;20410;-59
2021/09/27 02:40:59;;;;;;;;;;;;;;;;;;2123266;27;20578;-59
2021/09/27 02:41:59;;;;;;;;;;;;;;;;;;2121981;27;20057;-60
2021/09/27 02:43:00;;;;;;;;;;;;;;;;;;2123902;27;19931;-60
2021/09/27 02:44:01;;;;;;;;;;;;;;;;;;2123198;27;19930;-59
2021/09/27 02:45:02;;;;;;;;;;;;;;;;;;2125166;27;19948;-59
2021/09/27 02:46:03;;;;;;;;;;;;;;;;;;2132195;27;19935;-60
2021/09/27 02:47:04;;;;;;;;;;;;;;;;;;2129010;27;19923;-60
2021/09/27 02:48:11;;;;;;;;;;;;;;;;;;2122787;27;19923;-59
2021/09/27 02:49:12;;;;;;;;;;;;;;;;;;2123935;27;20056;-60
2021/09/27 02:50:13;;;;;;;;;;;;;;;;;;2122718;27;19924;-59
2021/09/27 02:51:13;;;;;;;;;;;;;;;;;;2127967;27;19930;-59
2021/09/27 02:52:14;;;;;;;;;;;;;;;;;;2132276;27;19923;-60
2021/09/27 02:53:15;;;;;;;;;;;;;;;;;;2127134;27;20223;-59
2021/09/27 02:54:16;;;;;;;;;;;;;;;;;;2123348;28;19923;-59
2021/09/27 02:55:17;;;;;;;;;;;;;;;;;;2123784;27;19924;-59
2021/09/27 02:56:17;;;;;;;;;;;;;;;;;;2122719;27;20416;-59
2021/09/27 02:57:18;;;;;;;;;;;;;;;;;;2122748;28;20295;-59
2021/09/27 02:58:19;;;;;;;;;;;;;;;;;;2123807;27;20380;-59
2021/09/27 02:59:20;;;;;;;;;;;;;;;;;;2124693;27;19923;-59
2021/09/27 03:00:21;;;;;;;;;;;;;;;;;;2116577;27;20408;-59
2021/09/27 03:01:22;;;;;;;;;;;;;;;;;;2115260;28;20498;-60
2021/09/27 03:02:22;;;;;;;;;;;;;;;;;;2122390;27;19929;-59
2021/09/27 03:03:23;;;;;;;;;;;;;;;;;;2115869;28;20007;-59
2021/09/27 03:04:24;;;;;;;;;;;;;;;;;;2115305;28;19930;-60
2021/09/27 03:05:25;;;;;;;;;;;;;;;;;;2120769;27;19923;-59
2021/09/27 03:06:26;;;;;;;;;;;;;;;;;;2123385;27;19931;-60
2021/09/27 03:07:26;;;;;;;;;;;;;;;;;;2123517;27;19923;-59
2021/09/27 03:08:27;;;;;;;;;;;;;;;;;;2124302;27;20356;-59
2021/09/27 03:09:28;;;;;;;;;;;;;;;;;;2115227;28;19924;-59
2021/09/27 03:10:29;;;;;;;;;;;;;;;;;;2114924;28;19927;-59
2021/09/27 03:11:30;;;;;;;;;;;;;;;;;;2120875;27;19930;-60
2021/09/27 03:12:30;;;;;;;;;;;;;;;;;;2123665;27;20106;-59
2021/09/27 03:13:31;;;;;;;;;;;;;;;;;;2123357;27;19927;-60
2021/09/27 03:14:32;;;;;;;;;;;;;;;;;;2121547;27;19973;-60
2021/09/27 03:15:33;;;;;;;;;;;;;;;;;;2123574;27;19924;-60
2021/09/27 03:16:34;;;;;;;;;;;;;;;;;;2123175;27;19923;-60
2021/09/27 03:17:35;;;;;;;;;;;;;;;;;;2122806;27;20357;-60
2021/09/27 03:18:35;;;;;;;;;;;;;;;;;;2115009;28;19924;-60
2021/09/27 03:19:36;;;;;;;;;;;;;;;;;;2115984;28;19923;-60
2021/09/27 03:20:37;;;;;;;;;;;;;;;;;;2121849;27;19931;-60
2021/09/27 03:21:38;;;;;;;;;;;;;;;;;;2123565;27;19951;-60
2021/09/27 03:22:39;;;;;;;;;;;;;;;;;;2122461;27;19927;-60
2021/09/27 03:23:40;;;;;;;;;;;;;;;;;;2127118;27;19930;-60
2021/09/27 03:24:41;;;;;;;;;;;;;;;;;;2132070;27;19927;-60
2021/09/27 03:25:42;;;;;;;;;;;;;;;;;;2127445;27;19923;-60
2021/09/27 03:26:42;;;;;;;;;;;;;;;;;;2122956;27;19923;-60
2021/09/27 03:27:43;;;;;;;;;;;;;;;;;;2123583;27;19968;-60
2021/09/27 03:28:44;;;;;;;;;;;;;;;;;;2121642;27;19924;-60
2021/09/27 03:29:45;;;;;;;;;;;;;;;;;;2129030;27;20283;-60
2021/09/27 03:30:46;;;;;;;;;;;;;;;;;;2131941;27;19982;-60
2021/09/27 03:31:47;;;;;;;;;;;;;;;;;;2127378;27;19931;-60
2021/09/27 03:32:50;;;;;;;;;;;;;;;;;;2119539;27;19923;-60
2021/09/27 03:33:51;;;;;;;;;;;;;;;;;;2115032;28;20323;-59
2021/09/27 03:34:52;;;;;;;;;;;;;;;;;;2120285;27;19924;-60
2021/09/27 03:35:53;;;;;;;;;;;;;;;;;;2117466;27;19951;-60
2021/09/27 03:36:54;;;;;;;;;;;;;;;;;;2114915;28;19936;-59
2021/09/27 03:37:55;;;;;;;;;;;;;;;;;;2118572;27;19933;-60
2021/09/27 03:38:56;;;;;;;;;;;;;;;;;;2122369;28;20410;-59
2021/09/27 03:39:56;;;;;;;;;;;;;;;;;;2122763;27;19927;-60
2021/09/27 03:40:57;;;;;;;;;;;;;;;;;;2123967;27;20283;-59
2021/09/27 03:41:58;;;;;;;;;;;;;;;;;;2114839;28;19940;-60
2021/09/27 03:42:59;;;;;;;;;;;;;;;;;;2114429;28;19972;-59
2021/09/27 03:43:59;;;;;;;;;;;;;;;;;;2117535;27;19924;-60
2021/09/27 03:45:00;;;;;;;;;;;;;;;;;;2122751;27;19973;-60
2021/09/27 03:46:01;;;;;;;;;;;;;;;;;;2123268;28;19923;-59
2021/09/27 03:47:02;;;;;;;;;;;;;;;;;;2122189;27;19931;-60
2021/09/27 03:48:03;;;;;;;;;;;;;;;;;;2123331;27;19927;-60
2021/09/27 03:49:04;;;;;;;;;;;;;;;;;;2123565;27;19931;-60
2021/09/27 03:50:08;;;;;;;;;;;;;;;;;;2121010;27;20330;-60
2021/09/27 03:51:09;;;;;;;;;;;;;;;;;;2115342;27;20338;-60
2021/09/27 03:52:09;;;;;;;;;;;;;;;;;;2115018;28;19924;-60
2021/09/27 03:53:10;;;;;;;;;;;;;;;;;;2124730;27;19923;-60
2021/09/27 03:54:11;;;;;;;;;;;;;;;;;;2131928;27;20387;-60
2021/09/27 03:55:12;;;;;;;;;;;;;;;;;;2130104;27;20026;-60
2021/09/27 03:56:13;;;;;;;;;;;;;;;;;;2121529;27;20031;-60
2021/09/27 03:57:14;;;;;;;;;;;;;;;;;;2123404;27;19924;-60
2021/09/27 03:58:15;;;;;;;;;;;;;;;;;;2120887;27;19927;-60
2021/09/27 03:59:16;;;;;;;;;;;;;;;;;;2122324;27;19962;-60
2021/09/27 04:00:17;;;;;;;;;;;;;;;;;;2123306;27;20280;-60
2021/09/27 04:01:18;;;;;;;;;;;;;;;;;;2121534;27;20387;-60
2021/09/27 04:02:19;;;;;;;;;;;;;;;;;;2122496;27;19931;-60
2021/09/27 04:03:20;;;;;;;;;;;;;;;;;;2123225;27;19930;-60
2021/09/27 04:04:21;;;;;;;;;;;;;;;;;;2122043;27;20295;-60
2021/09/27 04:05:22;;;;;;;;;;;;;;;;;;2122949;27;19923;-60
2021/09/27 04:06:23;;;;;;;;;;;;;;;;;;2123279;27;19924;-60
2021/09/27 04:07:24;;;;;;;;;;;;;;;;;;2122477;27;19923;-60
2021/09/27 04:08:24;;;;;;;;;;;;;;;;;;2121888;28;19951;-60
2021/09/27 04:09:25;;;;;;;;;;;;;;;;;;2123288;27;20283;-60
2021/09/27 04:10:26;;;;;;;;;;;;;;;;;;2123436;27;20080;-60
2021/09/27 04:11:27;;;;;;;;;;;;;;;;;;2115829;28;19970;-60
2021/09/27 04:12:28;;;;;;;;;;;;;;;;;;2114913;28;20299;-60
2021/09/27 04:13:29;;;;;;;;;;;;;;;;;;2118995;27;20308;-60
2021/09/27 04:14:30;;;;;;;;;;;;;;;;;;2122967;28;19930;-60
2021/09/27 04:15:30;;;;;;;;;;;;;;;;;;2123226;27;19930;-60
2021/09/27 04:16:32;;;;;;;;;;;;;;;;;;2120834;27;19924;-60
2021/09/27 04:17:33;;;;;;;;;;;;;;;;;;2123120;27;19945;-60
2021/09/27 04:18:33;;;;;;;;;;;;;;;;;;2122581;27;19923;-60
2021/09/27 04:19:34;;;;;;;;;;;;;;;;;;2122103;27;19923;-60
2021/09/27 04:20:35;;;;;;;;;;;;;;;;;;2123095;27;20441;-60
2021/09/27 04:21:36;;;;;;;;;;;;;;;;;;2123173;27;19924;-60
2021/09/27 04:22:37;;;;;;;;;;;;;;;;;;2124009;27;20013;-60
2021/09/27 04:23:38;;;;;;;;;;;;;;;;;;2114679;28;19924;-60
2021/09/27 04:24:38;;;;;;;;;;;;;;;;;;2114653;28;19954;-60
2021/09/27 04:25:39;;;;;;;;;;;;;;;;;;2121129;27;19930;-60
2021/09/27 04:26:40;;;;;;;;;;;;;;;;;;2131732;27;19975;-60
2021/09/27 04:27:41;;;;;;;;;;;;;;;;;;2131516;27;19923;-60
2021/09/27 04:28:42;;;;;;;;;;;;;;;;;;2122654;27;19957;-60
2021/09/27 04:29:43;;;;;;;;;;;;;;;;;;2131850;27;19927;-60
2021/09/27 04:30:44;;;;;;;;;;;;;;;;;;2130623;27;20283;-60
2021/09/27 04:31:44;;;;;;;;;;;;;;;;;;2124671;27;19923;-60
2021/09/27 04:32:45;;;;;;;;;;;;;;;;;;2131850;27;19930;-60
2021/09/27 04:33:46;;;;;;;;;;;;;;;;;;2129932;27;20333;-60
2021/09/27 04:34:47;;;;;;;;;;;;;;;;;;2125358;27;20033;-60
2021/09/27 04:35:48;;;;;;;;;;;;;;;;;;2131603;27;19923;-60
2021/09/27 04:36:49;;;;;;;;;;;;;;;;;;2128553;27;19927;-60
2021/09/27 04:37:50;;;;;;;;;;;;;;;;;;2121859;27;19924;-60
2021/09/27 04:38:50;;;;;;;;;;;;;;;;;;2123181;27;20363;-60
2021/09/27 04:39:51;;;;;;;;;;;;;;;;;;2121063;27;19927;-60
2021/09/27 04:40:52;;;;;;;;;;;;;;;;;;2125884;27;19923;-60
2021/09/27 04:41:53;;;;;;;;;;;;;;;;;;2131712;27;20376;-60
2021/09/27 04:42:55;;;;;;;;;;;;;;;;;;2126373;27;19924;-60
2021/09/27 04:43:56;;;;;;;;;;;;;;;;;;2128041;27;20439;-59
2021/09/27 04:44:57;;;;;;;;;;;;;;;;;;2131593;27;19927;-60
2021/09/27 04:45:58;;;;;;;;;;;;;;;;;;2125531;27;19923;-59
2021/09/27 04:46:59;;;;;;;;;;;;;;;;;;2129473;27;19926;-60
2021/09/27 04:47:59;;;;;;;;;;;;;;;;;;2131558;27;20268;-60
2021/09/27 04:49:00;;;;;;;;;;;;;;;;;;2125792;27;19924;-60
2021/09/27 04:50:02;;;;;;;;;;;;;;;;;;2130317;27;19923;-60
2021/09/27 04:51:02;;;;;;;;;;;;;;;;;;2124357;27;20034;-59
2021/09/27 04:52:05;;;;;;;;;;;;;;;;;;2120842;27;19936;-60
2021/09/27 04:53:05;;;;;;;;;;;;;;;;;;2115727;27;20019;-60
2021/09/27 04:54:06;;;;;;;;;;;;;;;;;;2114679;28;19970;-60
2021/09/27 04:55:09;;;;;;;;;;;;;;;;;;2118528;27;19923;-60
2021/09/27 04:56:09;;;;;;;;;;;;;;;;;;2122841;27;19972;-60
2021/09/27 04:57:10;;;;;;;;;;;;;;;;;;2123176;27;19971;-61
2021/09/27 04:58:11;;;;;;;;;;;;;;;;;;2120587;27;19974;-60
2021/09/27 04:59:12;;;;;;;;;;;;;;;;;;2114586;28;20368;-60
2021/09/27 05:00:13;;;;;;;;;;;;;;;;;;2120487;28;20284;-60
2021/09/27 05:01:13;;;;;;;;;;;;;;;;;;2123927;27;20277;-60
2021/09/27 05:02:14;;;;;;;;;;;;;;;;;;2123059;28;20342;-60
2021/09/27 05:03:15;;;;;;;;;;;;;;;;;;2123094;28;19923;-60
2021/09/27 05:04:16;;;;;;;;;;;;;;;;;;2122734;27;19923;-60
2021/09/27 05:05:17;;;;;;;;;;;;;;;;;;2114356;28;19924;-60
2021/09/27 05:06:19;;;;;;;;;;;;;;;;;;2114625;28;20309;-60
2021/09/27 05:07:20;;;;;;;;;;;;;;;;;;2120866;27;19931;-60
2021/09/27 05:08:20;;;;;;;;;;;;;;;;;;2123117;27;19947;-60
2021/09/27 05:09:27;;;;;;;;;;;;;;;;;;2121888;27;20026;-60
2021/09/27 05:10:27;;;;;;;;;;;;;;;;;;2121719;27;19923;-60
2021/09/27 05:11:28;;;;;;;;;;;;;;;;;;2122927;27;19972;-60
2021/09/27 05:12:29;;;;;;;;;;;;;;;;;;2121235;27;19934;-60
2021/09/27 05:13:30;;;;;;;;;;;;;;;;;;2117298;28;19946;-60
2021/09/27 05:14:31;;;;;;;;;;;;;;;;;;2114420;28;19984;-60
2021/09/27 05:15:31;;;;;;;;;;;;;;;;;;2116128;27;20399;-60
2021/09/27 05:16:32;;;;;;;;;;;;;;;;;;2120255;27;19924;-60
2021/09/27 05:17:33;;;;;;;;;;;;;;;;;;2114433;28;19931;-60
2021/09/27 05:18:34;;;;;;;;;;;;;;;;;;2115927;27;19930;-60
2021/09/27 05:19:35;;;;;;;;;;;;;;;;;;2119389;27;19981;-60
2021/09/27 05:20:35;;;;;;;;;;;;;;;;;;2114321;28;20307;-59
2021/09/27 05:21:36;;;;;;;;;;;;;;;;;;2116875;28;19977;-60
2021/09/27 05:22:37;;;;;;;;;;;;;;;;;;2129655;27;20036;-61
2021/09/27 05:23:38;;;;;;;;;;;;;;;;;;2131506;27;19923;-60
2021/09/27 05:24:39;;;;;;;;;;;;;;;;;;2124982;27;19928;-60
2021/09/27 05:25:40;;;;;;;;;;;;;;;;;;2121793;28;19930;-60
2021/09/27 05:26:40;;;;;;;;;;;;;;;;;;2122973;27;19934;-60
2021/09/27 05:27:41;;;;;;;;;;;;;;;;;;2120734;27;19947;-60
2021/09/27 05:28:42;;;;;;;;;;;;;;;;;;2115490;27;19924;-60
2021/09/27 05:29:43;;;;;;;;;;;;;;;;;;2114368;28;20384;-60
2021/09/27 05:30:44;;;;;;;;;;;;;;;;;;2118873;27;19923;-60
2021/09/27 05:31:44;;;;;;;;;;;;;;;;;;2124173;27;19961;-60
2021/09/27 05:32:45;;;;;;;;;;;;;;;;;;2124261;27;19929;-60
2021/09/27 05:33:46;;;;;;;;;;;;;;;;;;2125228;27;20010;-60
2021/09/27 05:34:47;;;;;;;;;;;;;;;;;;2115661;28;19931;-60
2021/09/27 05:35:48;;;;;;;;;;;;;;;;;;2115823;28;19939;-60
2021/09/27 05:36:49;;;;;;;;;;;;;;;;;;2123760;27;19927;-60
2021/09/27 05:37:50;;;;;;;;;;;;;;;;;;2115836;28;19927;-60
2021/09/27 05:38:51;;;;;;;;;;;;;;;;;;2115665;28;20402;-60
2021/09/27 05:39:51;;;;;;;;;;;;;;;;;;2121675;27;19927;-60
2021/09/27 05:40:52;;;;;;;;;;;;;;;;;;2124136;27;20037;-60
2021/09/27 05:41:53;;;;;;;;;;;;;;;;;;2123944;27;19927;-60
2021/09/27 05:42:54;;;;;;;;;;;;;;;;;;2122195;27;19957;-60
2021/09/27 05:43:55;;;;;;;;;;;;;;;;;;2124373;27;19939;-60
2021/09/27 05:44:55;;;;;;;;;;;;;;;;;;2123751;27;19931;-60
2021/09/27 05:45:56;;;;;;;;;;;;;;;;;;2123290;27;19927;-59
2021/09/27 05:46:57;;;;;;;;;;;;;;;;;;2124260;27;19923;-60
2021/09/27 05:47:58;;;;;;;;;;;;;;;;;;2123601;27;19928;-60
2021/09/27 05:48:59;;;;;;;;;;;;;;;;;;2122664;27;19928;-60
2021/09/27 05:50:00;;;;;;;;;;;;;;;;;;2124189;27;19923;-60
2021/09/27 05:51:01;;;;;;;;;;;;;;;;;;2118138;27;20258;-60
2021/09/27 05:52:02;;;;;;;;;;;;;;;;;;2122891;27;20310;-60
2021/09/27 05:53:03;;;;;;;;;;;;;;;;;;2115820;28;20269;-60
2021/09/27 05:54:03;;;;;;;;;;;;;;;;;;2116860;27;19931;-61
2021/09/27 05:55:04;;;;;;;;;;;;;;;;;;2126747;27;19931;-61
2021/09/27 05:56:05;;;;;;;;;;;;;;;;;;2123797;27;20333;-61
2021/09/27 05:57:06;;;;;;;;;;;;;;;;;;2123031;27;19923;-60
2021/09/27 05:58:07;;;;;;;;;;;;;;;;;;2122683;27;19966;-61
2021/09/27 05:59:07;;;;;;;;;;;;;;;;;;2124175;27;19923;-60
2021/09/27 06:00:08;;;;;;;;;;;;;;;;;;2123556;27;19923;-61
2021/09/27 06:01:09;;;;;;;;;;;;;;;;;;2119731;27;19927;-61
2021/09/27 06:02:10;;;;;;;;;;;;;;;;;;2115755;28;20295;-61
2021/09/27 06:03:11;;;;;;;;;;;;;;;;;;2119482;27;19924;-61
2021/09/27 06:04:12;;;;;;;;;;;;;;;;;;2123849;28;20467;-61
2021/09/27 06:05:12;;;;;;;;;;;;;;;;;;2124062;27;19929;-61
2021/09/27 06:06:13;;;;;;;;;;;;;;;;;;2122001;27;19931;-61
2021/09/27 06:07:14;;;;;;;;;;;;;;;;;;2116910;27;20488;-61
2021/09/27 06:08:15;;;;;;;;;;;;;;;;;;2115612;28;19935;-61
2021/09/27 06:09:16;;;;;;;;;;;;;;;;;;2120534;27;19931;-62
2021/09/27 06:10:17;;;;;;;;;;;;;;;;;;2123767;27;20291;-62
2021/09/27 06:11:18;;;;;;;;;;;;;;;;;;2124214;27;20284;-61
2021/09/27 06:12:19;;;;;;;;;;;;;;;;;;2121787;27;19924;-61
2021/09/27 06:13:21;;;;;;;;;;;;;;;;;;2123981;27;19970;-61
2021/09/27 06:14:21;;;;;;;;;;;;;;;;;;2123974;27;19978;-61
2021/09/27 06:15:22;;;;;;;;;;;;;;;;;;2121638;27;19923;-61
2021/09/27 06:16:23;;;;;;;;;;;;;;;;;;2124083;27;19923;-61
2021/09/27 06:17:24;;;;;;;;;;;;;;;;;;2124154;27;19923;-61
2021/09/27 06:18:25;;;;;;;;;;;;;;;;;;2123858;27;19930;-61
2021/09/27 06:19:26;;;;;;;;;;;;;;;;;;2115443;28;19923;-61
2021/09/27 06:20:26;;;;;;;;;;;;;;;;;;2114987;28;19931;-61
2021/09/27 06:21:27;;;;;;;;;;;;;;;;;;2123658;27;19979;-61
2021/09/27 06:22:28;;;;;;;;;;;;;;;;;;2115597;28;19946;-61
2021/09/27 06:23:29;;;;;;;;;;;;;;;;;;2115733;28;20390;-61
2021/09/27 06:24:30;;;;;;;;;;;;;;;;;;2121953;27;19928;-61
2021/09/27 06:25:31;;;;;;;;;;;;;;;;;;2124103;27;20368;-61
2021/09/27 06:26:31;;;;;;;;;;;;;;;;;;2123564;27;19923;-61
2021/09/27 06:27:32;;;;;;;;;;;;;;;;;;2122206;27;19934;-61
2021/09/27 06:28:33;;;;;;;;;;;;;;;;;;2123841;27;19967;-61
2021/09/27 06:29:34;;;;;;;;;;;;;;;;;;2122791;27;19931;-61
2021/09/27 06:30:34;;;;;;;;;;;;;;;;;;2122692;27;19923;-61
2021/09/27 06:31:35;;;;;;;;;;;;;;;;;;2123969;27;19924;-61
2021/09/27 06:32:36;;;;;;;;;;;;;;;;;;2122100;27;19923;-61
2021/09/27 06:33:37;;;;;;;;;;;;;;;;;;2123780;27;19924;-60
2021/09/27 06:34:38;;;;;;;;;;;;;;;;;;2123961;27;19923;-61
2021/09/27 06:35:39;;;;;;;;;;;;;;;;;;2122692;27;19976;-61
2021/09/27 06:36:40;;;;;;;;;;;;;;;;;;2125939;27;19934;-61
2021/09/27 06:37:41;;;;;;;;;;;;;;;;;;2123905;27;20084;-61
2021/09/27 06:38:42;;;;;;;;;;;;;;;;;;2123286;27;19980;-62
2021/09/27 06:39:42;;;;;;;;;;;;;;;;;;2119764;27;20320;-61
2021/09/27 06:40:43;;;;;;;;;;;;;;;;;;2115114;28;19948;-61
2021/09/27 06:41:44;;;;;;;;;;;;;;;;;;2118622;27;19974;-60
2021/09/27 06:42:47;;;;;;;;;;;;;;;;;;2122351;28;19931;-61
2021/09/27 06:43:47;;;;;;;;;;;;;;;;;;2123866;27;20056;-61
2021/09/27 06:44:48;;;;;;;;;;;;;;;;;;2124478;27;19935;-61
2021/09/27 06:45:49;;;;;;;;;;;;;;;;;;2116930;27;19930;-60
2021/09/27 06:46:50;;;;;;;;;;;;;;;;;;2115262;28;20403;-61
2021/09/27 06:47:51;;;;;;;;;;;;;;;;;;2119177;27;19934;-61
2021/09/27 06:48:52;;;;;;;;;;;;;;;;;;2123633;27;20018;-61
2021/09/27 06:49:53;;;;;;;;;;;;;;;;;;2123947;27;20380;-61
2021/09/27 06:50:54;;;;;;;;;;;;;;;;;;2119935;27;19927;-61
2021/09/27 06:51:56;;;;;;;;;;;;;;;;;;2115401;27;19927;-61
2021/09/27 06:52:56;;;;;;;;;;;;;;;;;;2123054;28;19928;-61
2021/09/27 06:53:57;;;;;;;;;;;;;;;;;;2122404;27;20907;-61
2021/09/27 06:54:58;;;;;;;;;;;;;;;;;;2123870;27;19931;-60
2021/09/27 06:55:59;;;;;;;;;;;;;;;;;;2123700;27;20300;-61